Etusivu
METAR-TAF:

METAR-TAF

Lentoasemat :

Loja, Ecuador

Leveyspiiri: 03-59-45S, Pituuspiiri: 079-22-19W, korkeus merenpinnasta: 1236 m

Tämänhetkinen sää

Tämä raportti tehtiin 41 minuuttia sitten, kello 17.00 UTC
Tuuli 7 kn kaakosta
Lämpötila 31°C
Kosteus 33%
Ilmanpaine 1018 hPa
Näkyvyys 10 km tai enemmän
Hajanaisia pilviä 4000 ft:n korkeudessa

METAR: SECA 131700Z 14007KT 9999 SCT040 31/13 Q1018 RMK A3007

Aika: 12:41 (17:41 UTC)


TAF: puuttuu

Säähavainnot ja -ennusteet yli 4000 lentoasemalta (METAR- ja TAF-raportit).

Käytössä olevat sääasemat on merkitty karttaan keltaisilla ja punaisilla pisteillä.

Aseta hiiri pisteen päälle nähdäksesi sääaseman nimen.

Klikkaa sitten nähdäksesi säähavainnot ja -ennusteet.

Kartan vaihtaminen: klikkaa mustalla rastilla varustettuja vihreitä pisteitä, niin voit zoomata sisään; viivalla varustettua vihreää pistettä, niin voit zoomata ulos tai vihreitä nuolia, niin pääset viereisille kartoille.


METAR-TAF: